sensor_id;sensor_type;location;lat;lon;timestamp;P1;durP1;ratioP1;P2;durP2;ratioP2
9260;SDS011;4667;42.726;23.252;2022-10-18T00:00:11;9.37;;;6.43;;
9260;SDS011;4667;42.726;23.252;2022-10-18T00:02:38;14.03;;;7.60;;
9260;SDS011;4667;42.726;23.252;2022-10-18T00:05:05;9.67;;;6.17;;
9260;SDS011;4667;42.726;23.252;2022-10-18T00:07:32;15.50;;;6.90;;
9260;SDS011;4667;42.726;23.252;2022-10-18T00:09:58;13.90;;;7.40;;
9260;SDS011;4667;42.726;23.252;2022-10-18T00:12:25;10.30;;;6.57;;
9260;SDS011;4667;42.726;23.252;2022-10-18T00:14:52;9.57;;;6.00;;
9260;SDS011;4667;42.726;23.252;2022-10-18T00:17:20;12.23;;;6.17;;
9260;SDS011;4667;42.726;23.252;2022-10-18T00:19:47;10.83;;;6.47;;
9260;SDS011;4667;42.726;23.252;2022-10-18T00:22:29;9.33;;;6.97;;
9260;SDS011;4667;42.726;23.252;2022-10-18T00:24:56;9.73;;;5.87;;
9260;SDS011;4667;42.726;23.252;2022-10-18T00:27:22;13.60;;;6.57;;
9260;SDS011;4667;42.726;23.252;2022-10-18T00:29:50;10.60;;;5.73;;
9260;SDS011;4667;42.726;23.252;2022-10-18T00:32:17;10.17;;;6.00;;
9260;SDS011;4667;42.726;23.252;2022-10-18T00:34:45;7.77;;;4.77;;
9260;SDS011;4667;42.726;23.252;2022-10-18T00:37:12;8.60;;;5.73;;
9260;SDS011;4667;42.726;23.252;2022-10-18T00:39:39;7.67;;;4.97;;
9260;SDS011;4667;42.726;23.252;2022-10-18T00:42:06;5.97;;;4.53;;
9260;SDS011;4667;42.726;23.252;2022-10-18T00:47:37;8.37;;;4.60;;
9260;SDS011;4667;42.726;23.252;2022-10-18T00:50:06;3.93;;;3.53;;
9260;SDS011;4667;42.726;23.252;2022-10-18T00:52:35;6.13;;;4.10;;
9260;SDS011;4667;42.726;23.252;2022-10-18T00:55:04;6.40;;;4.70;;
9260;SDS011;4667;42.726;23.252;2022-10-18T00:57:32;9.53;;;4.20;;
9260;SDS011;4667;42.726;23.252;2022-10-18T01:00:00;5.47;;;3.83;;
9260;SDS011;4667;42.726;23.252;2022-10-18T01:02:31;4.93;;;3.60;;
9260;SDS011;4667;42.726;23.252;2022-10-18T01:04:58;6.37;;;4.77;;
9260;SDS011;4667;42.726;23.252;2022-10-18T01:07:29;9.40;;;4.83;;
9260;SDS011;4667;42.726;23.252;2022-10-18T01:10:17;4.33;;;3.93;;
9260;SDS011;4667;42.726;23.252;2022-10-18T01:12:55;9.50;;;4.03;;
9260;SDS011;4667;42.726;23.252;2022-10-18T01:15:38;6.23;;;4.03;;
9260;SDS011;4667;42.726;23.252;2022-10-18T01:18:13;7.80;;;4.80;;
9260;SDS011;4667;42.726;23.252;2022-10-18T01:21:02;6.00;;;4.57;;
9260;SDS011;4667;42.726;23.252;2022-10-18T01:23:53;10.10;;;5.40;;
9260;SDS011;4667;42.726;23.252;2022-10-18T01:26:35;13.63;;;7.40;;
9260;SDS011;4667;42.726;23.252;2022-10-18T01:29:29;17.97;;;8.00;;
9260;SDS011;4667;42.726;23.252;2022-10-18T01:32:05;18.23;;;8.83;;
9260;SDS011;4667;42.726;23.252;2022-10-18T01:34:38;12.50;;;7.13;;
9260;SDS011;4667;42.726;23.252;2022-10-18T01:37:09;15.63;;;8.53;;
9260;SDS011;4667;42.726;23.252;2022-10-18T01:39:40;13.73;;;9.80;;
9260;SDS011;4667;42.726;23.252;2022-10-18T01:42:11;13.90;;;8.50;;
9260;SDS011;4667;42.726;23.252;2022-10-18T01:44:40;11.17;;;6.47;;
9260;SDS011;4667;42.726;23.252;2022-10-18T01:47:11;14.60;;;7.23;;
9260;SDS011;4667;42.726;23.252;2022-10-18T01:49:44;11.17;;;7.53;;
9260;SDS011;4667;42.726;23.252;2022-10-18T01:53:24;10.57;;;7.77;;
9260;SDS011;4667;42.726;23.252;2022-10-18T01:55:37;13.03;;;7.83;;
9260;SDS011;4667;42.726;23.252;2022-10-18T01:58:37;11.00;;;7.67;;
9260;SDS011;4667;42.726;23.252;2022-10-18T02:07:31;13.40;;;7.93;;
9260;SDS011;4667;42.726;23.252;2022-10-18T02:10:20;14.43;;;8.80;;
9260;SDS011;4667;42.726;23.252;2022-10-18T02:12:54;18.57;;;9.27;;
9260;SDS011;4667;42.726;23.252;2022-10-18T02:15:33;24.40;;;10.37;;
9260;SDS011;4667;42.726;23.252;2022-10-18T02:18:04;18.77;;;11.43;;
9260;SDS011;4667;42.726;23.252;2022-10-18T02:20:42;24.43;;;10.70;;
9260;SDS011;4667;42.726;23.252;2022-10-18T02:23:24;18.33;;;10.67;;
9260;SDS011;4667;42.726;23.252;2022-10-18T02:25:53;19.77;;;10.40;;
9260;SDS011;4667;42.726;23.252;2022-10-18T02:28:37;25.97;;;11.63;;
9260;SDS011;4667;42.726;23.252;2022-10-18T02:31:09;22.03;;;10.83;;
9260;SDS011;4667;42.726;23.252;2022-10-18T02:33:49;20.50;;;10.43;;
9260;SDS011;4667;42.726;23.252;2022-10-18T02:36:34;17.80;;;10.77;;
9260;SDS011;4667;42.726;23.252;2022-10-18T02:39:17;22.93;;;9.77;;
9260;SDS011;4667;42.726;23.252;2022-10-18T02:41:49;19.17;;;9.63;;
9260;SDS011;4667;42.726;23.252;2022-10-18T02:44:24;26.20;;;11.13;;
9260;SDS011;4667;42.726;23.252;2022-10-18T02:47:01;23.00;;;11.13;;
9260;SDS011;4667;42.726;23.252;2022-10-18T02:49:36;17.90;;;8.83;;
9260;SDS011;4667;42.726;23.252;2022-10-18T02:52:10;19.93;;;8.87;;
9260;SDS011;4667;42.726;23.252;2022-10-18T02:54:37;15.97;;;9.67;;
9260;SDS011;4667;42.726;23.252;2022-10-18T02:57:07;14.60;;;9.63;;
9260;SDS011;4667;42.726;23.252;2022-10-18T02:59:39;18.50;;;9.43;;
9260;SDS011;4667;42.726;23.252;2022-10-18T03:02:06;23.03;;;9.23;;
9260;SDS011;4667;42.726;23.252;2022-10-18T03:04:33;22.13;;;10.30;;
9260;SDS011;4667;42.726;23.252;2022-10-18T03:07:05;17.47;;;9.73;;
9260;SDS011;4667;42.726;23.252;2022-10-18T03:09:34;20.40;;;8.63;;
9260;SDS011;4667;42.726;23.252;2022-10-18T03:12:03;14.90;;;9.17;;
9260;SDS011;4667;42.726;23.252;2022-10-18T03:14:32;19.53;;;9.57;;
9260;SDS011;4667;42.726;23.252;2022-10-18T03:16:58;18.63;;;7.97;;
9260;SDS011;4667;42.726;23.252;2022-10-18T03:19:27;18.30;;;9.50;;
9260;SDS011;4667;42.726;23.252;2022-10-18T03:22:27;17.73;;;7.00;;
9260;SDS011;4667;42.726;23.252;2022-10-18T03:24:56;18.30;;;8.97;;
9260;SDS011;4667;42.726;23.252;2022-10-18T03:27:25;19.70;;;9.70;;
9260;SDS011;4667;42.726;23.252;2022-10-18T03:30:21;12.07;;;7.20;;
9260;SDS011;4667;42.726;23.252;2022-10-18T03:33:07;21.10;;;7.43;;
9260;SDS011;4667;42.726;23.252;2022-10-18T03:35:39;13.00;;;7.87;;
9260;SDS011;4667;42.726;23.252;2022-10-18T03:38:08;10.93;;;7.20;;
9260;SDS011;4667;42.726;23.252;2022-10-18T03:43:20;9.13;;;6.03;;
9260;SDS011;4667;42.726;23.252;2022-10-18T03:45:50;15.67;;;6.23;;
9260;SDS011;4667;42.726;23.252;2022-10-18T03:48:48;9.10;;;7.20;;
9260;SDS011;4667;42.726;23.252;2022-10-18T03:51:50;13.00;;;6.63;;
9260;SDS011;4667;42.726;23.252;2022-10-18T03:54:41;10.37;;;7.00;;
9260;SDS011;4667;42.726;23.252;2022-10-18T03:57:11;9.80;;;5.73;;
9260;SDS011;4667;42.726;23.252;2022-10-18T03:59:42;12.67;;;7.47;;
9260;SDS011;4667;42.726;23.252;2022-10-18T04:02:30;12.77;;;6.43;;
9260;SDS011;4667;42.726;23.252;2022-10-18T04:05:23;10.03;;;6.07;;
9260;SDS011;4667;42.726;23.252;2022-10-18T04:08:04;9.83;;;5.97;;
9260;SDS011;4667;42.726;23.252;2022-10-18T04:10:34;15.87;;;6.93;;
9260;SDS011;4667;42.726;23.252;2022-10-18T04:13:09;10.90;;;7.57;;
9260;SDS011;4667;42.726;23.252;2022-10-18T04:15:36;10.53;;;5.93;;
9260;SDS011;4667;42.726;23.252;2022-10-18T04:18:15;12.03;;;6.03;;
9260;SDS011;4667;42.726;23.252;2022-10-18T04:20:46;9.63;;;7.03;;
9260;SDS011;4667;42.726;23.252;2022-10-18T04:23:13;13.07;;;6.27;;
9260;SDS011;4667;42.726;23.252;2022-10-18T04:25:39;11.00;;;7.47;;
9260;SDS011;4667;42.726;23.252;2022-10-18T04:28:06;11.47;;;6.73;;
9260;SDS011;4667;42.726;23.252;2022-10-18T04:30:34;11.47;;;5.70;;
9260;SDS011;4667;42.726;23.252;2022-10-18T04:33:01;11.70;;;5.80;;
9260;SDS011;4667;42.726;23.252;2022-10-18T04:35:28;7.53;;;5.97;;
9260;SDS011;4667;42.726;23.252;2022-10-18T04:37:54;7.57;;;4.87;;
9260;SDS011;4667;42.726;23.252;2022-10-18T04:40:21;11.60;;;5.90;;
9260;SDS011;4667;42.726;23.252;2022-10-18T04:42:48;6.37;;;5.53;;
9260;SDS011;4667;42.726;23.252;2022-10-18T04:45:14;6.07;;;4.23;;
9260;SDS011;4667;42.726;23.252;2022-10-18T04:47:42;10.03;;;4.77;;
9260;SDS011;4667;42.726;23.252;2022-10-18T04:50:09;7.03;;;4.63;;
9260;SDS011;4667;42.726;23.252;2022-10-18T04:52:36;6.40;;;4.83;;
9260;SDS011;4667;42.726;23.252;2022-10-18T04:55:03;4.47;;;4.00;;
9260;SDS011;4667;42.726;23.252;2022-10-18T04:57:30;4.77;;;3.90;;
9260;SDS011;4667;42.726;23.252;2022-10-18T04:59:57;6.90;;;4.53;;
9260;SDS011;4667;42.726;23.252;2022-10-18T05:02:24;4.60;;;4.20;;
9260;SDS011;4667;42.726;23.252;2022-10-18T05:04:52;5.07;;;4.57;;
9260;SDS011;4667;42.726;23.252;2022-10-18T05:07:19;6.83;;;5.90;;
9260;SDS011;4667;42.726;23.252;2022-10-18T05:09:45;4.57;;;3.20;;
9260;SDS011;4667;42.726;23.252;2022-10-18T05:12:12;8.50;;;4.87;;
9260;SDS011;4667;42.726;23.252;2022-10-18T05:14:39;6.37;;;4.13;;
9260;SDS011;4667;42.726;23.252;2022-10-18T05:17:06;6.03;;;4.13;;
9260;SDS011;4667;42.726;23.252;2022-10-18T05:19:32;5.60;;;3.90;;
9260;SDS011;4667;42.726;23.252;2022-10-18T05:22:00;10.37;;;5.87;;
9260;SDS011;4667;42.726;23.252;2022-10-18T05:24:33;6.37;;;5.00;;
9260;SDS011;4667;42.726;23.252;2022-10-18T05:27:25;12.33;;;5.07;;
9260;SDS011;4667;42.726;23.252;2022-10-18T05:30:36;7.43;;;5.37;;
9260;SDS011;4667;42.726;23.252;2022-10-18T05:33:04;8.13;;;4.03;;
9260;SDS011;4667;42.726;23.252;2022-10-18T05:35:32;5.33;;;3.93;;
9260;SDS011;4667;42.726;23.252;2022-10-18T05:38:06;8.07;;;5.30;;
9260;SDS011;4667;42.726;23.252;2022-10-18T05:40:32;6.67;;;5.50;;
9260;SDS011;4667;42.726;23.252;2022-10-18T05:42:59;7.60;;;4.90;;
9260;SDS011;4667;42.726;23.252;2022-10-18T05:45:26;9.07;;;5.03;;
9260;SDS011;4667;42.726;23.252;2022-10-18T05:47:53;7.73;;;5.50;;
9260;SDS011;4667;42.726;23.252;2022-10-18T05:50:20;17.93;;;5.33;;
9260;SDS011;4667;42.726;23.252;2022-10-18T05:52:47;11.27;;;4.83;;
9260;SDS011;4667;42.726;23.252;2022-10-18T05:55:15;9.37;;;5.33;;
9260;SDS011;4667;42.726;23.252;2022-10-18T05:57:42;9.83;;;5.30;;
9260;SDS011;4667;42.726;23.252;2022-10-18T06:00:09;7.80;;;4.30;;
9260;SDS011;4667;42.726;23.252;2022-10-18T06:02:37;7.77;;;4.87;;
9260;SDS011;4667;42.726;23.252;2022-10-18T06:05:04;7.53;;;4.30;;
9260;SDS011;4667;42.726;23.252;2022-10-18T06:07:31;5.73;;;4.70;;
9260;SDS011;4667;42.726;23.252;2022-10-18T06:09:57;7.47;;;5.30;;
9260;SDS011;4667;42.726;23.252;2022-10-18T06:12:25;5.80;;;5.23;;
9260;SDS011;4667;42.726;23.252;2022-10-18T06:14:52;8.73;;;5.27;;
9260;SDS011;4667;42.726;23.252;2022-10-18T06:17:19;7.37;;;5.43;;
9260;SDS011;4667;42.726;23.252;2022-10-18T06:19:46;8.83;;;5.30;;
9260;SDS011;4667;42.726;23.252;2022-10-18T06:22:13;9.80;;;5.63;;
9260;SDS011;4667;42.726;23.252;2022-10-18T06:24:40;8.10;;;5.57;;
9260;SDS011;4667;42.726;23.252;2022-10-18T06:27:06;7.47;;;5.57;;
9260;SDS011;4667;42.726;23.252;2022-10-18T06:29:35;12.87;;;6.10;;
9260;SDS011;4667;42.726;23.252;2022-10-18T06:32:02;10.87;;;5.60;;
9260;SDS011;4667;42.726;23.252;2022-10-18T06:34:35;10.77;;;5.77;;
9260;SDS011;4667;42.726;23.252;2022-10-18T06:37:02;11.30;;;5.93;;
9260;SDS011;4667;42.726;23.252;2022-10-18T06:39:29;12.23;;;6.97;;
9260;SDS011;4667;42.726;23.252;2022-10-18T06:41:55;7.37;;;5.50;;
9260;SDS011;4667;42.726;23.252;2022-10-18T06:44:22;10.00;;;6.97;;
9260;SDS011;4667;42.726;23.252;2022-10-18T06:46:50;10.90;;;5.60;;
9260;SDS011;4667;42.726;23.252;2022-10-18T06:49:18;11.37;;;7.23;;
9260;SDS011;4667;42.726;23.252;2022-10-18T06:51:45;8.77;;;5.80;;
9260;SDS011;4667;42.726;23.252;2022-10-18T06:54:13;6.83;;;5.10;;
9260;SDS011;4667;42.726;23.252;2022-10-18T06:56:40;8.83;;;6.40;;
9260;SDS011;4667;42.726;23.252;2022-10-18T06:59:07;7.40;;;6.03;;
9260;SDS011;4667;42.726;23.252;2022-10-18T07:01:33;7.77;;;5.50;;
9260;SDS011;4667;42.726;23.252;2022-10-18T07:04:01;10.43;;;5.87;;
9260;SDS011;4667;42.726;23.252;2022-10-18T07:06:28;8.73;;;6.03;;
9260;SDS011;4667;42.726;23.252;2022-10-18T07:08:55;6.10;;;4.93;;
9260;SDS011;4667;42.726;23.252;2022-10-18T07:11:23;6.93;;;5.00;;
9260;SDS011;4667;42.726;23.252;2022-10-18T07:13:51;6.03;;;4.93;;
9260;SDS011;4667;42.726;23.252;2022-10-18T07:16:19;4.63;;;4.20;;
9260;SDS011;4667;42.726;23.252;2022-10-18T07:18:47;4.97;;;4.43;;
9260;SDS011;4667;42.726;23.252;2022-10-18T07:21:17;13.10;;;7.23;;
9260;SDS011;4667;42.726;23.252;2022-10-18T07:23:44;7.30;;;5.37;;
9260;SDS011;4667;42.726;23.252;2022-10-18T07:26:13;10.33;;;5.03;;
9260;SDS011;4667;42.726;23.252;2022-10-18T07:28:42;9.50;;;4.73;;
9260;SDS011;4667;42.726;23.252;2022-10-18T07:31:10;7.03;;;5.07;;
9260;SDS011;4667;42.726;23.252;2022-10-18T07:33:38;6.13;;;4.63;;
9260;SDS011;4667;42.726;23.252;2022-10-18T07:36:07;12.80;;;5.17;;
9260;SDS011;4667;42.726;23.252;2022-10-18T07:38:37;6.90;;;5.07;;
9260;SDS011;4667;42.726;23.252;2022-10-18T07:41:05;5.97;;;4.40;;
9260;SDS011;4667;42.726;23.252;2022-10-18T07:43:33;9.40;;;5.03;;
9260;SDS011;4667;42.726;23.252;2022-10-18T07:46:01;9.23;;;6.60;;
9260;SDS011;4667;42.726;23.252;2022-10-18T07:48:29;7.40;;;5.83;;
9260;SDS011;4667;42.726;23.252;2022-10-18T07:50:56;8.70;;;5.30;;
9260;SDS011;4667;42.726;23.252;2022-10-18T07:53:24;6.80;;;4.70;;
9260;SDS011;4667;42.726;23.252;2022-10-18T07:55:53;7.47;;;4.90;;
9260;SDS011;4667;42.726;23.252;2022-10-18T07:58:22;12.83;;;4.90;;
9260;SDS011;4667;42.726;23.252;2022-10-18T08:00:49;8.97;;;4.73;;
9260;SDS011;4667;42.726;23.252;2022-10-18T08:03:15;6.33;;;4.77;;
9260;SDS011;4667;42.726;23.252;2022-10-18T08:05:42;9.93;;;5.93;;
9260;SDS011;4667;42.726;23.252;2022-10-18T08:08:09;8.57;;;5.53;;
9260;SDS011;4667;42.726;23.252;2022-10-18T08:10:36;8.03;;;5.30;;
9260;SDS011;4667;42.726;23.252;2022-10-18T08:13:04;8.33;;;5.20;;
9260;SDS011;4667;42.726;23.252;2022-10-18T08:15:30;7.53;;;4.70;;
9260;SDS011;4667;42.726;23.252;2022-10-18T08:17:57;7.80;;;5.23;;
9260;SDS011;4667;42.726;23.252;2022-10-18T08:20:24;6.03;;;4.67;;
9260;SDS011;4667;42.726;23.252;2022-10-18T08:22:50;5.90;;;4.93;;
9260;SDS011;4667;42.726;23.252;2022-10-18T08:25:17;9.95;;;5.80;;
9260;SDS011;4667;42.726;23.252;2022-10-18T08:27:44;11.90;;;6.10;;
9260;SDS011;4667;42.726;23.252;2022-10-18T08:30:14;7.47;;;5.73;;
9260;SDS011;4667;42.726;23.252;2022-10-18T08:32:41;6.40;;;5.47;;
9260;SDS011;4667;42.726;23.252;2022-10-18T08:35:08;8.30;;;5.40;;
9260;SDS011;4667;42.726;23.252;2022-10-18T08:37:35;8.33;;;5.10;;
9260;SDS011;4667;42.726;23.252;2022-10-18T08:40:02;14.50;;;6.30;;
9260;SDS011;4667;42.726;23.252;2022-10-18T08:42:34;8.60;;;5.63;;
9260;SDS011;4667;42.726;23.252;2022-10-18T08:45:18;12.20;;;7.47;;
9260;SDS011;4667;42.726;23.252;2022-10-18T08:47:45;9.90;;;6.40;;
9260;SDS011;4667;42.726;23.252;2022-10-18T08:50:16;11.77;;;6.23;;
9260;SDS011;4667;42.726;23.252;2022-10-18T08:52:47;11.10;;;6.23;;
9260;SDS011;4667;42.726;23.252;2022-10-18T08:55:20;8.23;;;6.37;;
9260;SDS011;4667;42.726;23.252;2022-10-18T08:57:51;9.67;;;6.27;;
9260;SDS011;4667;42.726;23.252;2022-10-18T09:00:21;9.97;;;5.87;;
9260;SDS011;4667;42.726;23.252;2022-10-18T09:03:00;7.90;;;5.47;;
9260;SDS011;4667;42.726;23.252;2022-10-18T09:05:35;9.57;;;5.63;;
9260;SDS011;4667;42.726;23.252;2022-10-18T09:08:25;15.17;;;6.17;;
9260;SDS011;4667;42.726;23.252;2022-10-18T09:11:06;6.03;;;5.43;;
9260;SDS011;4667;42.726;23.252;2022-10-18T09:14:00;6.63;;;4.97;;
9260;SDS011;4667;42.726;23.252;2022-10-18T09:16:42;11.97;;;6.50;;
9260;SDS011;4667;42.726;23.252;2022-10-18T09:19:17;10.77;;;5.60;;
9260;SDS011;4667;42.726;23.252;2022-10-18T09:21:52;12.57;;;7.50;;
9260;SDS011;4667;42.726;23.252;2022-10-18T09:24:23;8.60;;;5.60;;
9260;SDS011;4667;42.726;23.252;2022-10-18T09:26:56;11.50;;;6.17;;
9260;SDS011;4667;42.726;23.252;2022-10-18T09:29:33;11.93;;;5.78;;
9260;SDS011;4667;42.726;23.252;2022-10-18T09:32:13;5.78;;;4.75;;
9260;SDS011;4667;42.726;23.252;2022-10-18T09:34:49;7.50;;;5.43;;
9260;SDS011;4667;42.726;23.252;2022-10-18T09:37:18;8.50;;;5.13;;
9260;SDS011;4667;42.726;23.252;2022-10-18T09:39:48;10.07;;;5.75;;
9260;SDS011;4667;42.726;23.252;2022-10-18T09:42:17;6.95;;;5.03;;
9260;SDS011;4667;42.726;23.252;2022-10-18T09:44:52;8.68;;;5.45;;
9260;SDS011;4667;42.726;23.252;2022-10-18T09:47:25;10.90;;;5.60;;
9260;SDS011;4667;42.726;23.252;2022-10-18T09:49:58;9.90;;;5.82;;
9260;SDS011;4667;42.726;23.252;2022-10-18T09:52:27;8.50;;;5.45;;
9260;SDS011;4667;42.726;23.252;2022-10-18T09:55:02;12.95;;;6.72;;
9260;SDS011;4667;42.726;23.252;2022-10-18T09:57:34;8.23;;;5.60;;
9260;SDS011;4667;42.726;23.252;2022-10-18T10:00:05;9.38;;;5.38;;
9260;SDS011;4667;42.726;23.252;2022-10-18T10:02:43;7.22;;;5.32;;
9260;SDS011;4667;42.726;23.252;2022-10-18T10:05:11;8.05;;;4.60;;
9260;SDS011;4667;42.726;23.252;2022-10-18T10:07:40;9.82;;;4.60;;
9260;SDS011;4667;42.726;23.252;2022-10-18T10:10:12;7.45;;;4.50;;
9260;SDS011;4667;42.726;23.252;2022-10-18T10:12:42;9.73;;;5.35;;
9260;SDS011;4667;42.726;23.252;2022-10-18T10:15:15;6.78;;;4.70;;
9260;SDS011;4667;42.726;23.252;2022-10-18T10:17:45;6.57;;;3.95;;
9260;SDS011;4667;42.726;23.252;2022-10-18T10:20:20;6.55;;;4.60;;
9260;SDS011;4667;42.726;23.252;2022-10-18T10:22:49;5.95;;;4.95;;
9260;SDS011;4667;42.726;23.252;2022-10-18T10:25:22;4.88;;;3.72;;
9260;SDS011;4667;42.726;23.252;2022-10-18T10:27:53;7.13;;;3.70;;
9260;SDS011;4667;42.726;23.252;2022-10-18T10:30:21;6.47;;;4.75;;
9260;SDS011;4667;42.726;23.252;2022-10-18T10:32:52;7.10;;;4.28;;
9260;SDS011;4667;42.726;23.252;2022-10-18T10:35:23;6.07;;;3.72;;
9260;SDS011;4667;42.726;23.252;2022-10-18T10:37:54;9.55;;;4.75;;
9260;SDS011;4667;42.726;23.252;2022-10-18T10:40:22;7.13;;;4.45;;
9260;SDS011;4667;42.726;23.252;2022-10-18T10:42:51;9.18;;;4.07;;
9260;SDS011;4667;42.726;23.252;2022-10-18T10:45:21;8.98;;;3.92;;
9260;SDS011;4667;42.726;23.252;2022-10-18T10:47:51;4.00;;;3.42;;
9260;SDS011;4667;42.726;23.252;2022-10-18T10:50:22;4.13;;;2.75;;
9260;SDS011;4667;42.726;23.252;2022-10-18T10:52:50;5.13;;;3.80;;
9260;SDS011;4667;42.726;23.252;2022-10-18T10:55:18;5.85;;;3.58;;
9260;SDS011;4667;42.726;23.252;2022-10-18T10:57:48;6.50;;;3.15;;
9260;SDS011;4667;42.726;23.252;2022-10-18T11:00:36;6.32;;;3.22;;
9260;SDS011;4667;42.726;23.252;2022-10-18T11:03:10;5.57;;;3.78;;
9260;SDS011;4667;42.726;23.252;2022-10-18T11:05:43;8.93;;;3.60;;
9260;SDS011;4667;42.726;23.252;2022-10-18T11:08:12;3.70;;;3.03;;
9260;SDS011;4667;42.726;23.252;2022-10-18T11:10:51;4.60;;;2.97;;
9260;SDS011;4667;42.726;23.252;2022-10-18T11:13:27;4.80;;;2.95;;
9260;SDS011;4667;42.726;23.252;2022-10-18T11:16:06;4.07;;;2.65;;
9260;SDS011;4667;42.726;23.252;2022-10-18T11:18:40;3.65;;;2.17;;
9260;SDS011;4667;42.726;23.252;2022-10-18T11:21:12;5.72;;;2.40;;
9260;SDS011;4667;42.726;23.252;2022-10-18T11:23:43;4.72;;;2.88;;
9260;SDS011;4667;42.726;23.252;2022-10-18T11:26:13;2.88;;;1.90;;
9260;SDS011;4667;42.726;23.252;2022-10-18T11:29:03;2.15;;;1.20;;
9260;SDS011;4667;42.726;23.252;2022-10-18T11:31:46;3.28;;;1.50;;
9260;SDS011;4667;42.726;23.252;2022-10-18T11:34:24;2.53;;;1.45;;
9260;SDS011;4667;42.726;23.252;2022-10-18T11:37:05;4.13;;;1.50;;
9260;SDS011;4667;42.726;23.252;2022-10-18T11:39:41;2.60;;;1.50;;
9260;SDS011;4667;42.726;23.252;2022-10-18T11:42:18;2.28;;;1.23;;
9260;SDS011;4667;42.726;23.252;2022-10-18T11:44:55;2.05;;;1.70;;
9260;SDS011;4667;42.726;23.252;2022-10-18T11:47:39;3.05;;;2.08;;
9260;SDS011;4667;42.726;23.252;2022-10-18T11:50:20;1.42;;;1.15;;
9260;SDS011;4667;42.726;23.252;2022-10-18T11:52:59;2.58;;;1.85;;
9260;SDS011;4667;42.726;23.252;2022-10-18T11:55:41;1.52;;;1.10;;
9260;SDS011;4667;42.726;23.252;2022-10-18T11:58:34;3.53;;;1.58;;
9260;SDS011;4667;42.726;23.252;2022-10-18T12:01:10;1.83;;;1.50;;
9260;SDS011;4667;42.726;23.252;2022-10-18T12:03:49;2.00;;;1.33;;
9260;SDS011;4667;42.726;23.252;2022-10-18T12:06:27;4.10;;;1.50;;
9260;SDS011;4667;42.726;23.252;2022-10-18T12:08:58;2.83;;;2.03;;
9260;SDS011;4667;42.726;23.252;2022-10-18T12:11:28;3.90;;;2.00;;
9260;SDS011;4667;42.726;23.252;2022-10-18T12:13:58;2.58;;;1.92;;
9260;SDS011;4667;42.726;23.252;2022-10-18T12:16:28;4.97;;;1.33;;
9260;SDS011;4667;42.726;23.252;2022-10-18T12:19:00;1.70;;;1.30;;
9260;SDS011;4667;42.726;23.252;2022-10-18T12:21:34;1.65;;;1.23;;
9260;SDS011;4667;42.726;23.252;2022-10-18T12:24:03;2.40;;;0.98;;
9260;SDS011;4667;42.726;23.252;2022-10-18T12:26:36;1.30;;;1.10;;
9260;SDS011;4667;42.726;23.252;2022-10-18T12:29:10;1.95;;;1.20;;
9260;SDS011;4667;42.726;23.252;2022-10-18T12:31:44;3.28;;;1.45;;
9260;SDS011;4667;42.726;23.252;2022-10-18T12:34:26;4.53;;;1.65;;
9260;SDS011;4667;42.726;23.252;2022-10-18T12:37:03;5.22;;;2.35;;
9260;SDS011;4667;42.726;23.252;2022-10-18T12:39:45;7.38;;;2.58;;
9260;SDS011;4667;42.726;23.252;2022-10-18T12:42:16;1.15;;;1.00;;
9260;SDS011;4667;42.726;23.252;2022-10-18T12:44:45;2.17;;;1.30;;
9260;SDS011;4667;42.726;23.252;2022-10-18T12:47:19;0.80;;;0.80;;
9260;SDS011;4667;42.726;23.252;2022-10-18T12:49:56;2.13;;;1.40;;
9260;SDS011;4667;42.726;23.252;2022-10-18T12:52:26;3.10;;;1.65;;
9260;SDS011;4667;42.726;23.252;2022-10-18T12:55:04;2.13;;;1.90;;
9260;SDS011;4667;42.726;23.252;2022-10-18T12:57:59;3.67;;;1.30;;
9260;SDS011;4667;42.726;23.252;2022-10-18T13:06:19;1.40;;;0.95;;
9260;SDS011;4667;42.726;23.252;2022-10-18T13:08:48;1.75;;;1.17;;
9260;SDS011;4667;42.726;23.252;2022-10-18T13:11:41;2.65;;;1.05;;
9260;SDS011;4667;42.726;23.252;2022-10-18T13:17:15;2.05;;;1.25;;
9260;SDS011;4667;42.726;23.252;2022-10-18T13:19:53;1.45;;;1.00;;
9260;SDS011;4667;42.726;23.252;2022-10-18T13:22:35;2.60;;;1.20;;
9260;SDS011;4667;42.726;23.252;2022-10-18T13:25:20;0.93;;;0.82;;
9260;SDS011;4667;42.726;23.252;2022-10-18T13:27:54;1.83;;;1.15;;
9260;SDS011;4667;42.726;23.252;2022-10-18T13:30:38;1.77;;;1.08;;
9260;SDS011;4667;42.726;23.252;2022-10-18T13:33:27;2.67;;;0.90;;
9260;SDS011;4667;42.726;23.252;2022-10-18T13:35:56;2.35;;;1.20;;
9260;SDS011;4667;42.726;23.252;2022-10-18T13:38:38;1.00;;;0.70;;
9260;SDS011;4667;42.726;23.252;2022-10-18T13:41:15;1.20;;;0.90;;
9260;SDS011;4667;42.726;23.252;2022-10-18T13:55:41;1.85;;;0.95;;
9260;SDS011;4667;42.726;23.252;2022-10-18T13:58:19;1.48;;;1.13;;
9260;SDS011;4667;42.726;23.252;2022-10-18T14:00:53;1.70;;;1.20;;
9260;SDS011;4667;42.726;23.252;2022-10-18T14:03:35;0.90;;;0.70;;
9260;SDS011;4667;42.726;23.252;2022-10-18T14:06:14;1.02;;;0.90;;
9260;SDS011;4667;42.726;23.252;2022-10-18T14:08:43;2.42;;;1.25;;
9260;SDS011;4667;42.726;23.252;2022-10-18T14:11:17;1.77;;;1.35;;
9260;SDS011;4667;42.726;23.252;2022-10-18T14:13:55;1.40;;;1.00;;
9260;SDS011;4667;42.726;23.252;2022-10-18T14:16:33;2.60;;;1.30;;
9260;SDS011;4667;42.726;23.252;2022-10-18T14:19:12;1.52;;;0.95;;
9260;SDS011;4667;42.726;23.252;2022-10-18T14:21:46;1.63;;;1.33;;
9260;SDS011;4667;42.726;23.252;2022-10-18T14:24:21;2.83;;;1.17;;
9260;SDS011;4667;42.726;23.252;2022-10-18T14:29:42;5.00;;;2.95;;
9260;SDS011;4667;42.726;23.252;2022-10-18T14:32:10;4.97;;;1.30;;
9260;SDS011;4667;42.726;23.252;2022-10-18T14:34:49;2.80;;;1.83;;
9260;SDS011;4667;42.726;23.252;2022-10-18T14:37:18;1.42;;;1.10;;
9260;SDS011;4667;42.726;23.252;2022-10-18T14:39:52;3.08;;;1.30;;
9260;SDS011;4667;42.726;23.252;2022-10-18T14:42:19;1.48;;;1.20;;
9260;SDS011;4667;42.726;23.252;2022-10-18T14:44:49;2.75;;;1.80;;
9260;SDS011;4667;42.726;23.252;2022-10-18T14:47:20;2.10;;;1.40;;
9260;SDS011;4667;42.726;23.252;2022-10-18T14:49:59;3.70;;;1.10;;
9260;SDS011;4667;42.726;23.252;2022-10-18T14:52:26;2.13;;;1.40;;
9260;SDS011;4667;42.726;23.252;2022-10-18T14:54:59;3.72;;;1.70;;
9260;SDS011;4667;42.726;23.252;2022-10-18T14:57:35;2.78;;;1.83;;
9260;SDS011;4667;42.726;23.252;2022-10-18T15:00:20;2.20;;;1.70;;
9260;SDS011;4667;42.726;23.252;2022-10-18T15:02:49;2.33;;;1.45;;
9260;SDS011;4667;42.726;23.252;2022-10-18T15:05:20;2.28;;;1.52;;
9260;SDS011;4667;42.726;23.252;2022-10-18T15:07:49;2.70;;;1.95;;
9260;SDS011;4667;42.726;23.252;2022-10-18T15:10:20;3.83;;;1.60;;
9260;SDS011;4667;42.726;23.252;2022-10-18T15:12:54;2.67;;;1.70;;
9260;SDS011;4667;42.726;23.252;2022-10-18T15:15:31;3.85;;;1.80;;
9260;SDS011;4667;42.726;23.252;2022-10-18T15:18:00;3.35;;;2.10;;
9260;SDS011;4667;42.726;23.252;2022-10-18T15:20:30;6.45;;;3.40;;
9260;SDS011;4667;42.726;23.252;2022-10-18T15:25:51;4.57;;;2.55;;
9260;SDS011;4667;42.726;23.252;2022-10-18T15:28:27;4.00;;;2.65;;
9260;SDS011;4667;42.726;23.252;2022-10-18T15:30:58;4.28;;;2.40;;
9260;SDS011;4667;42.726;23.252;2022-10-18T15:33:27;3.20;;;2.22;;
9260;SDS011;4667;42.726;23.252;2022-10-18T15:36:25;4.70;;;2.25;;
9260;SDS011;4667;42.726;23.252;2022-10-18T15:39:22;3.15;;;1.80;;
9260;SDS011;4667;42.726;23.252;2022-10-18T15:41:55;2.85;;;1.63;;
9260;SDS011;4667;42.726;23.252;2022-10-18T15:44:24;3.38;;;2.60;;
9260;SDS011;4667;42.726;23.252;2022-10-18T15:47:09;5.25;;;3.13;;
9260;SDS011;4667;42.726;23.252;2022-10-18T15:49:49;4.32;;;1.98;;
9260;SDS011;4667;42.726;23.252;2022-10-18T15:52:30;3.60;;;1.83;;
9260;SDS011;4667;42.726;23.252;2022-10-18T15:58:10;3.23;;;2.50;;
9260;SDS011;4667;42.726;23.252;2022-10-18T16:00:41;5.93;;;3.33;;
9260;SDS011;4667;42.726;23.252;2022-10-18T16:03:10;5.67;;;3.20;;
9260;SDS011;4667;42.726;23.252;2022-10-18T16:05:39;6.10;;;3.50;;
9260;SDS011;4667;42.726;23.252;2022-10-18T16:08:14;4.97;;;3.33;;
9260;SDS011;4667;42.726;23.252;2022-10-18T16:10:44;6.67;;;3.80;;
9260;SDS011;4667;42.726;23.252;2022-10-18T16:13:10;5.83;;;3.47;;